sensor_id;sensor_type;location;lat;lon;timestamp;pressure;altitude;pressure_sealevel;temperature;humidity
15007;BME280;7599;50.748;13.142;2023-02-26T00:02:09;94829.56;;;15.52;43.38
15007;BME280;7599;50.748;13.142;2023-02-26T00:05:14;94834.88;;;15.52;43.44
15007;BME280;7599;50.748;13.142;2023-02-26T00:08:16;94834.88;;;15.52;43.60
15007;BME280;7599;50.748;13.142;2023-02-26T00:11:19;94838.59;;;15.51;43.61
15007;BME280;7599;50.748;13.142;2023-02-26T00:14:22;94840.19;;;15.52;43.12
15007;BME280;7599;50.748;13.142;2023-02-26T00:17:29;94844.41;;;15.53;43.34
15007;BME280;7599;50.748;13.142;2023-02-26T00:20:35;94851.56;;;15.53;43.40
15007;BME280;7599;50.748;13.142;2023-02-26T00:23:38;94854.22;;;15.53;43.75
15007;BME280;7599;50.748;13.142;2023-02-26T00:26:40;94856.88;;;15.53;43.50
15007;BME280;7599;50.748;13.142;2023-02-26T00:29:44;94859.53;;;15.53;43.40
15007;BME280;7599;50.748;13.142;2023-02-26T00:32:47;94859.53;;;15.53;43.29
15007;BME280;7599;50.748;13.142;2023-02-26T00:35:56;94862.97;;;15.53;43.40
15007;BME280;7599;50.748;13.142;2023-02-26T00:39:20;94860.88;;;15.55;43.17
15007;BME280;7599;50.748;13.142;2023-02-26T00:42:29;94865.63;;;15.53;43.29
15007;BME280;7599;50.748;13.142;2023-02-26T00:45:32;94866.69;;;15.52;43.16
15007;BME280;7599;50.748;13.142;2023-02-26T00:48:46;94869.88;;;15.54;43.35
15007;BME280;7599;50.748;13.142;2023-02-26T00:51:55;94863.75;;;15.54;43.40
15007;BME280;7599;50.748;13.142;2023-02-26T00:54:57;94872.53;;;15.54;43.02
15007;BME280;7599;50.748;13.142;2023-02-26T00:58:00;94869.88;;;15.54;43.45
15007;BME280;7599;50.748;13.142;2023-02-26T01:01:03;94867.47;;;15.53;43.19
15007;BME280;7599;50.748;13.142;2023-02-26T01:04:06;94865.63;;;15.53;43.38
15007;BME280;7599;50.748;13.142;2023-02-26T01:07:10;94867.22;;;15.54;43.43
15007;BME280;7599;50.748;13.142;2023-02-26T01:10:13;94873.06;;;15.56;43.52
15007;BME280;7599;50.748;13.142;2023-02-26T01:13:16;94873.06;;;15.51;43.25
15007;BME280;7599;50.748;13.142;2023-02-26T01:16:21;94871.72;;;15.54;43.58
15007;BME280;7599;50.748;13.142;2023-02-26T01:19:30;94871.72;;;15.54;43.50
15007;BME280;7599;50.748;13.142;2023-02-26T01:22:39;94872.53;;;15.54;43.85
15007;BME280;7599;50.748;13.142;2023-02-26T01:25:47;94880.50;;;15.54;43.62
15007;BME280;7599;50.748;13.142;2023-02-26T01:28:51;94880.22;;;15.56;43.65
15007;BME280;7599;50.748;13.142;2023-02-26T01:31:59;94879.16;;;15.57;43.62
15007;BME280;7599;50.748;13.142;2023-02-26T01:35:06;94878.34;;;15.56;43.43
15007;BME280;7599;50.748;13.142;2023-02-26T01:38:21;94877.28;;;15.57;43.28
15007;BME280;7599;50.748;13.142;2023-02-26T01:41:30;94875.97;;;15.55;43.23
15007;BME280;7599;50.748;13.142;2023-02-26T01:44:39;94873.31;;;15.55;43.23
15007;BME280;7599;50.748;13.142;2023-02-26T01:47:48;94891.59;;;15.56;43.22
15007;BME280;7599;50.748;13.142;2023-02-26T01:50:52;94883.94;;;15.55;43.15
15007;BME280;7599;50.748;13.142;2023-02-26T01:53:56;94881.28;;;15.55;43.18
15007;BME280;7599;50.748;13.142;2023-02-26T01:57:03;94892.91;;;15.54;43.09
15007;BME280;7599;50.748;13.142;2023-02-26T02:00:07;94897.19;;;15.55;43.04
15007;BME280;7599;50.748;13.142;2023-02-26T02:03:10;94895.56;;;15.54;43.22
15007;BME280;7599;50.748;13.142;2023-02-26T02:06:16;94891.88;;;15.55;43.29
15007;BME280;7599;50.748;13.142;2023-02-26T02:09:20;94897.44;;;15.53;43.35
15007;BME280;7599;50.748;13.142;2023-02-26T02:12:28;94900.06;;;15.53;43.32
15007;BME280;7599;50.748;13.142;2023-02-26T02:15:41;94897.44;;;15.53;43.29
15007;BME280;7599;50.748;13.142;2023-02-26T02:18:52;94895.56;;;15.54;43.17
15007;BME280;7599;50.748;13.142;2023-02-26T02:22:14;94904.34;;;15.54;42.85
15007;BME280;7599;50.748;13.142;2023-02-26T02:26:10;94908.81;;;15.54;42.99
15007;BME280;7599;50.748;13.142;2023-02-26T02:29:30;94913.59;;;15.52;42.75
15007;BME280;7599;50.748;13.142;2023-02-26T02:32:38;94914.66;;;15.51;43.03
15007;BME280;7599;50.748;13.142;2023-02-26T02:35:49;94920.50;;;15.53;43.17
15007;BME280;7599;50.748;13.142;2023-02-26T02:38:55;94918.13;;;15.51;42.99
15007;BME280;7599;50.748;13.142;2023-02-26T02:42:05;94929.00;;;15.55;42.92
15007;BME280;7599;50.748;13.142;2023-02-26T02:45:15;94929.22;;;15.53;42.80
15007;BME280;7599;50.748;13.142;2023-02-26T02:48:23;94924.72;;;15.54;42.99
15007;BME280;7599;50.748;13.142;2023-02-26T02:51:30;94937.19;;;15.53;43.24
15007;BME280;7599;50.748;13.142;2023-02-26T02:54:38;94939.03;;;15.53;43.12
15007;BME280;7599;50.748;13.142;2023-02-26T02:57:46;94943.28;;;15.54;42.83
15007;BME280;7599;50.748;13.142;2023-02-26T03:00:53;94952.28;;;15.53;42.88
15007;BME280;7599;50.748;13.142;2023-02-26T03:04:03;94950.19;;;15.50;42.98
15007;BME280;7599;50.748;13.142;2023-02-26T03:07:07;94955.75;;;15.48;42.84
15007;BME280;7599;50.748;13.142;2023-02-26T03:10:10;94959.78;;;15.46;43.22
15007;BME280;7599;50.748;13.142;2023-02-26T03:13:16;94967.22;;;15.44;43.17
15007;BME280;7599;50.748;13.142;2023-02-26T03:16:31;94968.03;;;15.39;43.20
15007;BME280;7599;50.748;13.142;2023-02-26T03:19:45;94971.22;;;15.36;43.19
15007;BME280;7599;50.748;13.142;2023-02-26T03:23:01;94975.25;;;15.34;43.20
15007;BME280;7599;50.748;13.142;2023-02-26T03:26:10;94980.56;;;15.29;42.86
15007;BME280;7599;50.748;13.142;2023-02-26T03:29:19;94987.97;;;15.26;43.25
15007;BME280;7599;50.748;13.142;2023-02-26T03:32:27;94992.81;;;15.19;43.19
15007;BME280;7599;50.748;13.142;2023-02-26T03:35:36;94996.00;;;15.16;43.01
15007;BME280;7599;50.748;13.142;2023-02-26T03:38:45;94992.28;;;15.12;43.37
15007;BME280;7599;50.748;13.142;2023-02-26T03:41:53;95004.53;;;15.08;43.39
15007;BME280;7599;50.748;13.142;2023-02-26T03:45:00;95011.94;;;15.06;43.15
15007;BME280;7599;50.748;13.142;2023-02-26T03:48:06;95024.66;;;15.04;43.19
15007;BME280;7599;50.748;13.142;2023-02-26T03:51:12;95019.84;;;15.16;43.68
15007;BME280;7599;50.748;13.142;2023-02-26T03:54:19;95026.88;;;15.36;43.19
15007;BME280;7599;50.748;13.142;2023-02-26T03:57:23;95035.00;;;15.50;42.75
15007;BME280;7599;50.748;13.142;2023-02-26T04:00:26;95041.34;;;15.59;42.46
15007;BME280;7599;50.748;13.142;2023-02-26T04:03:29;95046.66;;;15.59;42.37
15007;BME280;7599;50.748;13.142;2023-02-26T04:06:36;95050.34;;;15.63;42.42
15007;BME280;7599;50.748;13.142;2023-02-26T04:09:39;95056.44;;;15.64;42.68
15007;BME280;7599;50.748;13.142;2023-02-26T04:12:42;95058.03;;;15.65;42.51
15007;BME280;7599;50.748;13.142;2023-02-26T04:15:44;95056.69;;;15.67;42.44
15007;BME280;7599;50.748;13.142;2023-02-26T04:18:47;95063.25;;;15.75;42.14
15007;BME280;7599;50.748;13.142;2023-02-26T04:21:50;95064.56;;;15.77;42.54
15007;BME280;7599;50.748;13.142;2023-02-26T04:24:53;95061.66;;;15.79;41.91
15007;BME280;7599;50.748;13.142;2023-02-26T04:27:55;95071.47;;;15.78;42.24
15007;BME280;7599;50.748;13.142;2023-02-26T04:30:58;95075.97;;;15.78;42.23
15007;BME280;7599;50.748;13.142;2023-02-26T04:34:01;95074.13;;;15.78;42.23
15007;BME280;7599;50.748;13.142;2023-02-26T04:37:05;95073.28;;;15.83;42.10
15007;BME280;7599;50.748;13.142;2023-02-26T04:40:09;95081.72;;;15.90;42.47
15007;BME280;7599;50.748;13.142;2023-02-26T04:43:11;95089.34;;;15.96;42.27
15007;BME280;7599;50.748;13.142;2023-02-26T04:46:14;95095.94;;;16.04;42.09
15007;BME280;7599;50.748;13.142;2023-02-26T04:49:16;95094.31;;;16.08;42.06
15007;BME280;7599;50.748;13.142;2023-02-26T04:52:20;95095.63;;;16.11;41.96
15007;BME280;7599;50.748;13.142;2023-02-26T04:55:23;95109.97;;;16.10;42.04
15007;BME280;7599;50.748;13.142;2023-02-26T04:58:25;95107.56;;;16.08;42.08
15007;BME280;7599;50.748;13.142;2023-02-26T05:01:28;95109.72;;;16.06;42.09
15007;BME280;7599;50.748;13.142;2023-02-26T05:04:31;95114.81;;;16.03;42.08
15007;BME280;7599;50.748;13.142;2023-02-26T05:07:35;95118.78;;;16.00;42.15
15007;BME280;7599;50.748;13.142;2023-02-26T05:10:38;95121.19;;;15.96;41.98
15007;BME280;7599;50.748;13.142;2023-02-26T05:13:40;95122.53;;;15.94;41.80
15007;BME280;7599;50.748;13.142;2023-02-26T05:16:43;95129.75;;;15.88;42.24
15007;BME280;7599;50.748;13.142;2023-02-26T05:19:46;95129.50;;;15.85;42.35
15007;BME280;7599;50.748;13.142;2023-02-26T05:22:49;95134.53;;;15.81;42.31
15007;BME280;7599;50.748;13.142;2023-02-26T05:25:54;95135.38;;;15.77;42.22
15007;BME280;7599;50.748;13.142;2023-02-26T05:28:57;95136.97;;;15.73;42.59
15007;BME280;7599;50.748;13.142;2023-02-26T05:31:59;95150.78;;;15.70;42.38
15007;BME280;7599;50.748;13.142;2023-02-26T05:35:02;95147.09;;;15.66;42.69
15007;BME280;7599;50.748;13.142;2023-02-26T05:38:06;95155.88;;;15.61;42.81
15007;BME280;7599;50.748;13.142;2023-02-26T05:41:09;95164.66;;;15.56;42.75
15007;BME280;7599;50.748;13.142;2023-02-26T05:44:12;95179.22;;;15.54;42.71
15007;BME280;7599;50.748;13.142;2023-02-26T05:47:14;95165.16;;;15.48;42.88
15007;BME280;7599;50.748;13.142;2023-02-26T05:50:17;95180.84;;;15.45;42.49
15007;BME280;7599;50.748;13.142;2023-02-26T05:53:21;95185.09;;;15.41;42.82
15007;BME280;7599;50.748;13.142;2023-02-26T05:56:24;95195.16;;;15.39;42.93
15007;BME280;7599;50.748;13.142;2023-02-26T05:59:26;95196.47;;;15.36;42.60
15007;BME280;7599;50.748;13.142;2023-02-26T06:02:29;95205.50;;;15.35;42.82
15007;BME280;7599;50.748;13.142;2023-02-26T06:05:31;95204.97;;;15.38;42.94
15007;BME280;7599;50.748;13.142;2023-02-26T06:08:37;95217.41;;;15.38;42.74
15007;BME280;7599;50.748;13.142;2023-02-26T06:11:40;95220.88;;;15.38;42.84
15007;BME280;7599;50.748;13.142;2023-02-26T06:14:42;95226.69;;;15.40;42.79
15007;BME280;7599;50.748;13.142;2023-02-26T06:17:45;95230.13;;;15.41;42.72
15007;BME280;7599;50.748;13.142;2023-02-26T06:20:47;95233.31;;;15.43;43.03
15007;BME280;7599;50.748;13.142;2023-02-26T06:23:51;95237.81;;;15.42;42.86
15007;BME280;7599;50.748;13.142;2023-02-26T06:26:53;95241.53;;;15.41;42.40
15007;BME280;7599;50.748;13.142;2023-02-26T06:29:56;95252.94;;;15.42;42.75
15007;BME280;7599;50.748;13.142;2023-02-26T06:32:58;95260.34;;;15.40;42.91
15007;BME280;7599;50.748;13.142;2023-02-26T06:36:01;95264.31;;;15.37;42.73
15007;BME280;7599;50.748;13.142;2023-02-26T06:39:05;95280.78;;;15.34;42.71
15007;BME280;7599;50.748;13.142;2023-02-26T06:42:08;95280.25;;;15.32;42.66
15007;BME280;7599;50.748;13.142;2023-02-26T06:45:11;95288.47;;;15.31;42.52
15007;BME280;7599;50.748;13.142;2023-02-26T06:48:14;95290.59;;;15.29;42.78
15007;BME280;7599;50.748;13.142;2023-02-26T06:51:16;95297.19;;;15.26;42.44
15007;BME280;7599;50.748;13.142;2023-02-26T06:54:20;95303.84;;;15.23;42.86
15007;BME280;7599;50.748;13.142;2023-02-26T06:57:23;95310.47;;;15.21;42.53
15007;BME280;7599;50.748;13.142;2023-02-26T07:00:25;95301.19;;;15.18;42.81
15007;BME280;7599;50.748;13.142;2023-02-26T07:03:28;95312.31;;;15.15;42.58
15007;BME280;7599;50.748;13.142;2023-02-26T07:06:31;95322.91;;;15.15;42.64
15007;BME280;7599;50.748;13.142;2023-02-26T07:09:35;95329.53;;;15.13;42.83
15007;BME280;7599;50.748;13.142;2023-02-26T07:12:37;95326.88;;;15.13;42.71
15007;BME280;7599;50.748;13.142;2023-02-26T07:15:40;95336.69;;;15.12;42.88
15007;BME280;7599;50.748;13.142;2023-02-26T07:18:45;95344.38;;;15.14;42.92
15007;BME280;7599;50.748;13.142;2023-02-26T07:21:47;95345.97;;;15.15;42.65
15007;BME280;7599;50.748;13.142;2023-02-26T07:24:51;95346.50;;;15.17;43.10
15007;BME280;7599;50.748;13.142;2023-02-26T07:27:54;95352.06;;;15.15;42.78
15007;BME280;7599;50.748;13.142;2023-02-26T07:30:56;95358.16;;;15.16;42.81
15007;BME280;7599;50.748;13.142;2023-02-26T07:33:59;95370.34;;;15.17;43.17
15007;BME280;7599;50.748;13.142;2023-02-26T07:37:02;95374.59;;;15.18;42.83
15007;BME280;7599;50.748;13.142;2023-02-26T07:40:07;95372.19;;;15.16;42.84
15007;BME280;7599;50.748;13.142;2023-02-26T07:43:10;95383.84;;;15.15;42.69
15007;BME280;7599;50.748;13.142;2023-02-26T07:46:12;95375.91;;;15.15;43.01
15007;BME280;7599;50.748;13.142;2023-02-26T07:49:15;95390.75;;;15.16;42.67
15007;BME280;7599;50.748;13.142;2023-02-26T07:52:17;95390.22;;;15.14;42.71
15007;BME280;7599;50.748;13.142;2023-02-26T07:55:21;95399.22;;;15.13;42.54
15007;BME280;7599;50.748;13.142;2023-02-26T07:58:24;95407.72;;;15.10;42.48
15007;BME280;7599;50.748;13.142;2023-02-26T08:01:26;95400.03;;;15.09;42.68
15007;BME280;7599;50.748;13.142;2023-02-26T08:04:29;95409.81;;;15.08;42.86
15007;BME280;7599;50.748;13.142;2023-02-26T08:07:33;95414.56;;;15.06;42.86
15007;BME280;7599;50.748;13.142;2023-02-26T08:10:37;95414.03;;;15.04;42.38
15007;BME280;7599;50.748;13.142;2023-02-26T08:13:42;95429.41;;;15.02;42.96
15007;BME280;7599;50.748;13.142;2023-02-26T08:16:45;95429.69;;;15.01;42.96
15007;BME280;7599;50.748;13.142;2023-02-26T08:19:47;95434.19;;;15.00;42.73
15007;BME280;7599;50.748;13.142;2023-02-26T08:22:50;95436.03;;;15.00;42.33
15007;BME280;7599;50.748;13.142;2023-02-26T08:26:00;95442.13;;;15.00;42.54
15007;BME280;7599;50.748;13.142;2023-02-26T08:29:02;95442.66;;;14.97;42.82
15007;BME280;7599;50.748;13.142;2023-02-26T08:32:05;95451.66;;;14.96;42.68
15007;BME280;7599;50.748;13.142;2023-02-26T08:35:08;95452.69;;;14.95;42.80
15007;BME280;7599;50.748;13.142;2023-02-26T08:38:10;95454.81;;;14.93;42.85
15007;BME280;7599;50.748;13.142;2023-02-26T08:41:14;95461.94;;;14.93;42.84
15007;BME280;7599;50.748;13.142;2023-02-26T08:44:17;95464.34;;;14.94;42.63
15007;BME280;7599;50.748;13.142;2023-02-26T08:47:20;95465.94;;;14.95;42.40
15007;BME280;7599;50.748;13.142;2023-02-26T08:50:29;95472.56;;;14.98;42.40
15007;BME280;7599;50.748;13.142;2023-02-26T08:53:31;95480.53;;;14.98;42.52
15007;BME280;7599;50.748;13.142;2023-02-26T08:56:35;95480.00;;;15.01;42.72
15007;BME280;7599;50.748;13.142;2023-02-26T08:59:38;95480.78;;;15.01;42.16
15007;BME280;7599;50.748;13.142;2023-02-26T09:02:40;95489.25;;;15.03;42.09
15007;BME280;7599;50.748;13.142;2023-02-26T09:05:43;95491.91;;;15.03;42.36
15007;BME280;7599;50.748;13.142;2023-02-26T09:08:45;95494.56;;;15.03;42.51
15007;BME280;7599;50.748;13.142;2023-02-26T09:11:50;95500.41;;;15.00;42.20
15007;BME280;7599;50.748;13.142;2023-02-26T09:14:53;95513.09;;;14.98;42.39
15007;BME280;7599;50.748;13.142;2023-02-26T09:17:55;95512.31;;;14.98;42.56
15007;BME280;7599;50.748;13.142;2023-02-26T09:20:58;95522.91;;;14.98;42.03
15007;BME280;7599;50.748;13.142;2023-02-26T09:24:00;95527.41;;;14.97;42.30
15007;BME280;7599;50.748;13.142;2023-02-26T09:27:05;95538.00;;;14.97;42.12
15007;BME280;7599;50.748;13.142;2023-02-26T09:30:09;95539.06;;;14.96;42.51
15007;BME280;7599;50.748;13.142;2023-02-26T09:33:11;95539.06;;;14.96;42.39
15007;BME280;7599;50.748;13.142;2023-02-26T09:36:15;95556.25;;;14.94;42.26
15007;BME280;7599;50.748;13.142;2023-02-26T09:39:18;95557.59;;;14.96;42.41
15007;BME280;7599;50.748;13.142;2023-02-26T09:42:30;95559.19;;;14.97;42.81
15007;BME280;7599;50.748;13.142;2023-02-26T09:45:40;95560.50;;;14.95;42.55
15007;BME280;7599;50.748;13.142;2023-02-26T09:48:45;95566.84;;;14.94;42.55
15007;BME280;7599;50.748;13.142;2023-02-26T09:51:51;95564.44;;;14.92;42.42
15007;BME280;7599;50.748;13.142;2023-02-26T09:54:57;95569.75;;;14.92;42.34
15007;BME280;7599;50.748;13.142;2023-02-26T09:58:03;95573.19;;;14.93;42.28
15007;BME280;7599;50.748;13.142;2023-02-26T10:01:11;95574.25;;;14.92;42.35
15007;BME280;7599;50.748;13.142;2023-02-26T10:04:23;95579.28;;;14.88;42.08
15007;BME280;7599;50.748;13.142;2023-02-26T10:07:34;95578.47;;;14.87;42.36
15007;BME280;7599;50.748;13.142;2023-02-26T10:10:47;95590.94;;;14.87;42.55
15007;BME280;7599;50.748;13.142;2023-02-26T10:13:55;95588.28;;;14.87;42.27
15007;BME280;7599;50.748;13.142;2023-02-26T10:17:02;95597.81;;;14.88;42.42
15007;BME280;7599;50.748;13.142;2023-02-26T10:20:13;95597.81;;;14.88;42.22
15007;BME280;7599;50.748;13.142;2023-02-26T10:23:21;95595.97;;;14.88;42.30
15007;BME280;7599;50.748;13.142;2023-02-26T10:26:27;95600.97;;;14.90;42.32
15007;BME280;7599;50.748;13.142;2023-02-26T10:29:36;95607.06;;;14.90;42.43
15007;BME280;7599;50.748;13.142;2023-02-26T10:32:50;95615.56;;;14.93;42.30
15007;BME280;7599;50.748;13.142;2023-02-26T10:36:02;95617.41;;;14.92;42.50
15007;BME280;7599;50.748;13.142;2023-02-26T10:39:17;95622.97;;;14.90;42.22
15007;BME280;7599;50.748;13.142;2023-02-26T10:42:25;95630.66;;;14.92;42.39
15007;BME280;7599;50.748;13.142;2023-02-26T10:45:39;95632.00;;;14.95;42.59
15007;BME280;7599;50.748;13.142;2023-02-26T10:48:54;95633.84;;;14.94;42.24
15007;BME280;7599;50.748;13.142;2023-02-26T10:52:10;95640.47;;;14.92;42.47
15007;BME280;7599;50.748;13.142;2023-02-26T10:55:28;95649.22;;;14.92;42.08
15007;BME280;7599;50.748;13.142;2023-02-26T10:58:33;95652.38;;;14.89;42.46
15007;BME280;7599;50.748;13.142;2023-02-26T11:01:37;95648.66;;;14.90;42.42
15007;BME280;7599;50.748;13.142;2023-02-26T11:04:40;95656.91;;;14.94;42.27
15007;BME280;7599;50.748;13.142;2023-02-26T11:07:44;95655.59;;;14.96;42.26
15007;BME280;7599;50.748;13.142;2023-02-26T11:10:53;95652.16;;;14.96;41.94
15007;BME280;7599;50.748;13.142;2023-02-26T11:13:56;95656.94;;;14.99;41.78
15007;BME280;7599;50.748;13.142;2023-02-26T11:17:03;95654.56;;;15.02;42.15
15007;BME280;7599;50.748;13.142;2023-02-26T11:20:18;95658.00;;;15.03;41.94
15007;BME280;7599;50.748;13.142;2023-02-26T11:23:26;95661.69;;;15.02;41.80
15007;BME280;7599;50.748;13.142;2023-02-26T11:26:31;95658.53;;;15.00;41.92
15007;BME280;7599;50.748;13.142;2023-02-26T11:29:38;95664.63;;;15.00;42.04
15007;BME280;7599;50.748;13.142;2023-02-26T11:32:44;95667.28;;;15.00;41.59
15007;BME280;7599;50.748;13.142;2023-02-26T11:35:47;95669.38;;;14.98;41.86
15007;BME280;7599;50.748;13.142;2023-02-26T11:38:53;95667.28;;;15.00;41.96
15007;BME280;7599;50.748;13.142;2023-02-26T11:41:58;95669.66;;;15.02;41.80
15007;BME280;7599;50.748;13.142;2023-02-26T11:45:04;95665.44;;;15.01;41.93
15007;BME280;7599;50.748;13.142;2023-02-26T11:48:13;95675.47;;;14.99;42.14
15007;BME280;7599;50.748;13.142;2023-02-26T11:51:19;95656.16;;;14.98;41.75
15007;BME280;7599;50.748;13.142;2023-02-26T11:54:24;95673.63;;;14.99;41.52
15007;BME280;7599;50.748;13.142;2023-02-26T11:57:30;95675.72;;;14.97;41.61
15007;BME280;7599;50.748;13.142;2023-02-26T12:00:35;95673.09;;;14.97;41.79
15007;BME280;7599;50.748;13.142;2023-02-26T12:03:43;95674.94;;;14.97;41.83
15007;BME280;7599;50.748;13.142;2023-02-26T12:06:48;95677.59;;;14.97;42.00
15007;BME280;7599;50.748;13.142;2023-02-26T12:09:51;95674.13;;;14.96;41.84
15007;BME280;7599;50.748;13.142;2023-02-26T12:13:03;95678.63;;;14.96;41.96
15007;BME280;7599;50.748;13.142;2023-02-26T12:16:14;95675.19;;;14.95;41.67
15007;BME280;7599;50.748;13.142;2023-02-26T12:19:33;95670.44;;;14.97;42.17
15007;BME280;7599;50.748;13.142;2023-02-26T12:22:48;95677.34;;;14.98;41.65
15007;BME280;7599;50.748;13.142;2023-02-26T12:26:15;95680.78;;;14.99;41.75
15007;BME280;7599;50.748;13.142;2023-02-26T12:29:31;95671.75;;;14.95;41.71
15007;BME280;7599;50.748;13.142;2023-02-26T12:32:46;95674.13;;;14.96;41.78
15007;BME280;7599;50.748;13.142;2023-02-26T12:36:02;95677.03;;;14.95;41.51
15007;BME280;7599;50.748;13.142;2023-02-26T12:39:16;95685.50;;;14.92;41.82
15007;BME280;7599;50.748;13.142;2023-02-26T12:42:38;61500.28;;;-141.05;100.00
15007;BME280;7599;50.748;13.142;2023-02-26T12:45:50;61500.28;;;-141.05;100.00
15007;BME280;7599;50.748;13.142;2023-02-26T12:49:07;61500.28;;;-141.05;100.00
15007;BME280;7599;50.748;13.142;2023-02-26T12:52:42;61500.28;;;-141.05;100.00
15007;BME280;7599;50.748;13.142;2023-02-26T12:56:07;61500.28;;;-141.05;100.00
15007;BME280;7599;50.748;13.142;2023-02-26T12:59:28;61500.28;;;-141.05;100.00
15007;BME280;7599;50.748;13.142;2023-02-26T13:02:58;61500.28;;;-141.05;100.00
15007;BME280;7599;50.748;13.142;2023-02-26T13:06:25;61500.28;;;-141.05;100.00
15007;BME280;7599;50.748;13.142;2023-02-26T13:09:43;61500.28;;;-141.05;100.00
15007;BME280;7599;50.748;13.142;2023-02-26T13:12:57;61500.28;;;-141.05;100.00
15007;BME280;7599;50.748;13.142;2023-02-26T13:16:14;61500.28;;;-141.05;100.00
15007;BME280;7599;50.748;13.142;2023-02-26T13:19:28;61500.28;;;-141.05;100.00
15007;BME280;7599;50.748;13.142;2023-02-26T13:22:37;61500.28;;;-141.05;100.00
15007;BME280;7599;50.748;13.142;2023-02-26T13:25:44;61500.28;;;-141.05;100.00
15007;BME280;7599;50.748;13.142;2023-02-26T13:28:55;61500.28;;;-141.05;100.00
15007;BME280;7599;50.748;13.142;2023-02-26T13:32:01;61500.28;;;-141.05;100.00
15007;BME280;7599;50.748;13.142;2023-02-26T13:35:06;61500.28;;;-141.05;100.00
15007;BME280;7599;50.748;13.142;2023-02-26T13:38:21;61500.28;;;-141.05;100.00
15007;BME280;7599;50.748;13.142;2023-02-26T13:41:34;61500.28;;;-141.05;100.00
15007;BME280;7599;50.748;13.142;2023-02-26T13:44:50;61500.28;;;-141.05;100.00
15007;BME280;7599;50.748;13.142;2023-02-26T13:48:10;61500.28;;;-141.05;100.00
15007;BME280;7599;50.748;13.142;2023-02-26T13:51:26;61500.28;;;-141.05;100.00
15007;BME280;7599;50.748;13.142;2023-02-26T13:54:42;61500.28;;;-141.05;100.00
15007;BME280;7599;50.748;13.142;2023-02-26T13:57:51;61500.28;;;-141.05;100.00
15007;BME280;7599;50.748;13.142;2023-02-26T14:00:59;61500.28;;;-141.05;100.00
15007;BME280;7599;50.748;13.142;2023-02-26T14:04:07;61500.28;;;-141.05;100.00
15007;BME280;7599;50.748;13.142;2023-02-26T14:07:45;61500.28;;;-141.05;100.00
15007;BME280;7599;50.748;13.142;2023-02-26T14:10:55;61500.28;;;-141.05;100.00
15007;BME280;7599;50.748;13.142;2023-02-26T14:14:11;61500.28;;;-141.05;100.00
15007;BME280;7599;50.748;13.142;2023-02-26T14:17:27;61500.28;;;-141.05;100.00
15007;BME280;7599;50.748;13.142;2023-02-26T14:20:33;61500.28;;;-141.05;100.00
15007;BME280;7599;50.748;13.142;2023-02-26T14:23:36;61500.28;;;-141.05;100.00
15007;BME280;7599;50.748;13.142;2023-02-26T14:26:44;61500.28;;;-141.05;100.00
15007;BME280;7599;50.748;13.142;2023-02-26T14:29:58;61500.28;;;-141.05;100.00
15007;BME280;7599;50.748;13.142;2023-02-26T14:33:14;61500.28;;;-141.05;100.00
15007;BME280;7599;50.748;13.142;2023-02-26T14:36:22;61500.28;;;-141.05;100.00
15007;BME280;7599;50.748;13.142;2023-02-26T14:39:31;61500.28;;;-141.05;100.00
15007;BME280;7599;50.748;13.142;2023-02-26T14:42:38;61500.28;;;-141.05;100.00
15007;BME280;7599;50.748;13.142;2023-02-26T14:45:44;61500.28;;;-141.05;100.00
15007;BME280;7599;50.748;13.142;2023-02-26T14:48:46;61500.28;;;-141.05;100.00
15007;BME280;7599;50.748;13.142;2023-02-26T14:52:03;61500.28;;;-141.05;100.00
15007;BME280;7599;50.748;13.142;2023-02-26T14:55:20;61500.28;;;-141.05;100.00
15007;BME280;7599;50.748;13.142;2023-02-26T14:58:40;61500.28;;;-141.05;100.00
15007;BME280;7599;50.748;13.142;2023-02-26T15:01:49;61500.28;;;-141.05;100.00
15007;BME280;7599;50.748;13.142;2023-02-26T15:05:19;61500.28;;;-141.05;100.00
15007;BME280;7599;50.748;13.142;2023-02-26T15:08:35;61500.28;;;-141.05;100.00
15007;BME280;7599;50.748;13.142;2023-02-26T15:11:54;61500.28;;;-141.05;100.00
15007;BME280;7599;50.748;13.142;2023-02-26T15:18:44;61500.28;;;-141.05;100.00
15007;BME280;7599;50.748;13.142;2023-02-26T15:21:59;61500.28;;;-141.05;100.00
15007;BME280;7599;50.748;13.142;2023-02-26T15:25:15;61500.28;;;-141.05;100.00
15007;BME280;7599;50.748;13.142;2023-02-26T15:28:24;61500.28;;;-141.05;100.00
15007;BME280;7599;50.748;13.142;2023-02-26T15:31:33;61500.28;;;-141.05;100.00
15007;BME280;7599;50.748;13.142;2023-02-26T15:34:40;61500.28;;;-141.05;100.00
15007;BME280;7599;50.748;13.142;2023-02-26T15:37:47;61500.28;;;-141.05;100.00
15007;BME280;7599;50.748;13.142;2023-02-26T15:40:52;61500.28;;;-141.05;100.00
15007;BME280;7599;50.748;13.142;2023-02-26T15:44:01;61500.28;;;-141.05;100.00
15007;BME280;7599;50.748;13.142;2023-02-26T15:47:04;61500.28;;;-141.05;100.00
15007;BME280;7599;50.748;13.142;2023-02-26T15:50:13;61500.28;;;-141.05;100.00
15007;BME280;7599;50.748;13.142;2023-02-26T15:53:27;61500.28;;;-141.05;100.00
15007;BME280;7599;50.748;13.142;2023-02-26T15:56:34;61500.28;;;-141.05;100.00
15007;BME280;7599;50.748;13.142;2023-02-26T15:59:41;61500.28;;;-141.05;100.00
15007;BME280;7599;50.748;13.142;2023-02-26T16:02:44;61500.28;;;-141.05;100.00
15007;BME280;7599;50.748;13.142;2023-02-26T16:05:48;61500.28;;;-141.05;100.00
15007;BME280;7599;50.748;13.142;2023-02-26T16:08:51;61500.28;;;-141.05;100.00
15007;BME280;7599;50.748;13.142;2023-02-26T16:11:55;61500.28;;;-141.05;100.00
15007;BME280;7599;50.748;13.142;2023-02-26T16:15:00;61500.28;;;-141.05;100.00
15007;BME280;7599;50.748;13.142;2023-02-26T16:18:07;61500.28;;;-141.05;100.00
15007;BME280;7599;50.748;13.142;2023-02-26T16:21:18;61500.28;;;-141.05;100.00
15007;BME280;7599;50.748;13.142;2023-02-26T16:24:25;61500.28;;;-141.05;100.00
15007;BME280;7599;50.748;13.142;2023-02-26T16:27:30;61500.28;;;-141.05;100.00